sensor_id;sensor_type;location;lat;lon;timestamp;P1;durP1;ratioP1;P2;durP2;ratioP2
21876;SDS011;11103;43.788;23.710;2022-07-31T00:02:04;12.57;;;9.17;;
21876;SDS011;11103;43.788;23.710;2022-07-31T00:04:29;12.33;;;9.60;;
21876;SDS011;11103;43.788;23.710;2022-07-31T00:06:56;10.90;;;8.97;;
21876;SDS011;11103;43.788;23.710;2022-07-31T00:09:21;11.23;;;9.30;;
21876;SDS011;11103;43.788;23.710;2022-07-31T00:11:46;10.57;;;9.13;;
21876;SDS011;11103;43.788;23.710;2022-07-31T00:14:12;10.20;;;8.60;;
21876;SDS011;11103;43.788;23.710;2022-07-31T00:16:37;11.03;;;8.90;;
21876;SDS011;11103;43.788;23.710;2022-07-31T00:19:03;11.67;;;8.93;;
21876;SDS011;11103;43.788;23.710;2022-07-31T00:21:28;13.80;;;9.07;;
21876;SDS011;11103;43.788;23.710;2022-07-31T00:23:54;12.33;;;10.13;;
21876;SDS011;11103;43.788;23.710;2022-07-31T00:26:20;10.53;;;9.33;;
21876;SDS011;11103;43.788;23.710;2022-07-31T00:28:45;18.13;;;9.57;;
21876;SDS011;11103;43.788;23.710;2022-07-31T00:31:19;13.20;;;10.10;;
21876;SDS011;11103;43.788;23.710;2022-07-31T00:33:44;12.20;;;9.97;;
21876;SDS011;11103;43.788;23.710;2022-07-31T00:36:09;18.10;;;10.17;;
21876;SDS011;11103;43.788;23.710;2022-07-31T00:38:37;12.30;;;9.90;;
21876;SDS011;11103;43.788;23.710;2022-07-31T00:41:02;15.03;;;9.67;;
21876;SDS011;11103;43.788;23.710;2022-07-31T00:43:28;19.77;;;12.17;;
21876;SDS011;11103;43.788;23.710;2022-07-31T00:48:23;16.73;;;11.47;;
21876;SDS011;11103;43.788;23.710;2022-07-31T00:50:49;18.60;;;12.50;;
21876;SDS011;11103;43.788;23.710;2022-07-31T00:53:18;15.30;;;10.00;;
21876;SDS011;11103;43.788;23.710;2022-07-31T00:55:43;12.33;;;9.93;;
21876;SDS011;11103;43.788;23.710;2022-07-31T00:58:09;19.47;;;13.87;;
21876;SDS011;11103;43.788;23.710;2022-07-31T01:03:34;12.20;;;9.20;;
21876;SDS011;11103;43.788;23.710;2022-07-31T01:05:59;14.43;;;8.90;;
21876;SDS011;11103;43.788;23.710;2022-07-31T01:08:25;11.13;;;8.80;;
21876;SDS011;11103;43.788;23.710;2022-07-31T01:11:26;13.50;;;9.30;;
21876;SDS011;11103;43.788;23.710;2022-07-31T01:13:58;13.33;;;9.17;;
21876;SDS011;11103;43.788;23.710;2022-07-31T01:16:28;14.93;;;8.80;;
21876;SDS011;11103;43.788;23.710;2022-07-31T01:18:58;11.20;;;9.67;;
21876;SDS011;11103;43.788;23.710;2022-07-31T01:21:34;15.77;;;9.60;;
21876;SDS011;11103;43.788;23.710;2022-07-31T01:26:52;11.53;;;9.53;;
21876;SDS011;11103;43.788;23.710;2022-07-31T01:29:26;11.30;;;8.93;;
21876;SDS011;11103;43.788;23.710;2022-07-31T01:32:36;12.47;;;9.13;;
21876;SDS011;11103;43.788;23.710;2022-07-31T01:34:52;11.63;;;9.43;;
21876;SDS011;11103;43.788;23.710;2022-07-31T01:40:07;14.33;;;10.03;;
21876;SDS011;11103;43.788;23.710;2022-07-31T01:42:36;11.50;;;9.67;;
21876;SDS011;11103;43.788;23.710;2022-07-31T01:45:04;11.80;;;9.53;;
21876;SDS011;11103;43.788;23.710;2022-07-31T01:47:31;10.03;;;8.20;;
21876;SDS011;11103;43.788;23.710;2022-07-31T01:49:58;12.23;;;10.07;;
21876;SDS011;11103;43.788;23.710;2022-07-31T01:52:27;12.63;;;9.70;;
21876;SDS011;11103;43.788;23.710;2022-07-31T01:54:54;13.40;;;9.33;;
21876;SDS011;11103;43.788;23.710;2022-07-31T01:57:21;11.63;;;9.00;;
21876;SDS011;11103;43.788;23.710;2022-07-31T01:59:48;10.97;;;8.87;;
21876;SDS011;11103;43.788;23.710;2022-07-31T02:02:17;11.70;;;8.87;;
21876;SDS011;11103;43.788;23.710;2022-07-31T02:04:44;9.60;;;8.17;;
21876;SDS011;11103;43.788;23.710;2022-07-31T02:07:17;9.40;;;8.00;;
21876;SDS011;11103;43.788;23.710;2022-07-31T02:09:44;8.80;;;7.90;;
21876;SDS011;11103;43.788;23.710;2022-07-31T02:12:11;14.73;;;8.20;;
21876;SDS011;11103;43.788;23.710;2022-07-31T02:14:46;11.70;;;8.33;;
21876;SDS011;11103;43.788;23.710;2022-07-31T02:17:12;9.07;;;8.17;;
21876;SDS011;11103;43.788;23.710;2022-07-31T02:19:39;11.33;;;8.70;;
21876;SDS011;11103;43.788;23.710;2022-07-31T02:22:05;14.23;;;8.90;;
21876;SDS011;11103;43.788;23.710;2022-07-31T02:24:32;10.43;;;9.10;;
21876;SDS011;11103;43.788;23.710;2022-07-31T02:26:58;13.10;;;9.47;;
21876;SDS011;11103;43.788;23.710;2022-07-31T02:29:24;11.40;;;9.03;;
21876;SDS011;11103;43.788;23.710;2022-07-31T02:31:54;10.40;;;9.13;;
21876;SDS011;11103;43.788;23.710;2022-07-31T02:34:21;10.53;;;9.00;;
21876;SDS011;11103;43.788;23.710;2022-07-31T02:36:48;9.37;;;8.37;;
21876;SDS011;11103;43.788;23.710;2022-07-31T02:39:17;11.80;;;9.70;;
21876;SDS011;11103;43.788;23.710;2022-07-31T02:41:44;11.10;;;9.03;;
21876;SDS011;11103;43.788;23.710;2022-07-31T02:44:11;11.27;;;9.17;;
21876;SDS011;11103;43.788;23.710;2022-07-31T02:46:38;14.27;;;9.80;;
21876;SDS011;11103;43.788;23.710;2022-07-31T02:49:05;13.40;;;10.50;;
21876;SDS011;11103;43.788;23.710;2022-07-31T02:51:31;13.67;;;10.20;;
21876;SDS011;11103;43.788;23.710;2022-07-31T02:53:57;13.00;;;9.77;;
21876;SDS011;11103;43.788;23.710;2022-07-31T02:56:23;12.13;;;9.73;;
21876;SDS011;11103;43.788;23.710;2022-07-31T02:58:48;11.70;;;9.50;;
21876;SDS011;11103;43.788;23.710;2022-07-31T03:01:15;12.33;;;9.70;;
21876;SDS011;11103;43.788;23.710;2022-07-31T03:03:41;13.47;;;10.27;;
21876;SDS011;11103;43.788;23.710;2022-07-31T03:06:07;14.93;;;10.00;;
21876;SDS011;11103;43.788;23.710;2022-07-31T03:08:33;12.20;;;10.00;;
21876;SDS011;11103;43.788;23.710;2022-07-31T03:10:59;12.23;;;9.70;;
21876;SDS011;11103;43.788;23.710;2022-07-31T03:13:26;16.83;;;9.90;;
21876;SDS011;11103;43.788;23.710;2022-07-31T03:15:54;15.93;;;9.70;;
21876;SDS011;11103;43.788;23.710;2022-07-31T03:18:21;12.30;;;9.70;;
21876;SDS011;11103;43.788;23.710;2022-07-31T03:20:49;15.80;;;10.43;;
21876;SDS011;11103;43.788;23.710;2022-07-31T03:23:19;17.47;;;9.70;;
21876;SDS011;11103;43.788;23.710;2022-07-31T03:25:47;11.63;;;10.13;;
21876;SDS011;11103;43.788;23.710;2022-07-31T03:28:14;11.47;;;9.93;;
21876;SDS011;11103;43.788;23.710;2022-07-31T03:30:41;16.00;;;9.97;;
21876;SDS011;11103;43.788;23.710;2022-07-31T03:33:06;17.83;;;10.47;;
21876;SDS011;11103;43.788;23.710;2022-07-31T03:35:32;12.73;;;9.97;;
21876;SDS011;11103;43.788;23.710;2022-07-31T03:37:58;14.77;;;10.37;;
21876;SDS011;11103;43.788;23.710;2022-07-31T03:40:24;16.47;;;10.60;;
21876;SDS011;11103;43.788;23.710;2022-07-31T03:42:50;21.20;;;11.23;;
21876;SDS011;11103;43.788;23.710;2022-07-31T03:45:17;15.00;;;11.00;;
21876;SDS011;11103;43.788;23.710;2022-07-31T03:47:44;12.90;;;9.50;;
21876;SDS011;11103;43.788;23.710;2022-07-31T03:50:10;15.00;;;11.00;;
21876;SDS011;11103;43.788;23.710;2022-07-31T03:52:36;15.63;;;10.70;;
21876;SDS011;11103;43.788;23.710;2022-07-31T03:55:02;16.43;;;10.77;;
21876;SDS011;11103;43.788;23.710;2022-07-31T03:57:28;15.13;;;10.80;;
21876;SDS011;11103;43.788;23.710;2022-07-31T03:59:55;15.87;;;10.43;;
21876;SDS011;11103;43.788;23.710;2022-07-31T04:02:24;12.97;;;10.37;;
21876;SDS011;11103;43.788;23.710;2022-07-31T04:04:51;14.77;;;10.10;;
21876;SDS011;11103;43.788;23.710;2022-07-31T04:07:17;11.60;;;9.27;;
21876;SDS011;11103;43.788;23.710;2022-07-31T04:09:43;15.60;;;10.17;;
21876;SDS011;11103;43.788;23.710;2022-07-31T04:12:09;17.30;;;10.70;;
21876;SDS011;11103;43.788;23.710;2022-07-31T04:14:34;12.30;;;9.60;;
21876;SDS011;11103;43.788;23.710;2022-07-31T04:17:00;15.27;;;10.10;;
21876;SDS011;11103;43.788;23.710;2022-07-31T04:19:25;13.50;;;10.07;;
21876;SDS011;11103;43.788;23.710;2022-07-31T04:21:50;12.60;;;9.63;;
21876;SDS011;11103;43.788;23.710;2022-07-31T04:24:16;13.13;;;9.73;;
21876;SDS011;11103;43.788;23.710;2022-07-31T04:26:43;11.93;;;9.47;;
21876;SDS011;11103;43.788;23.710;2022-07-31T04:29:08;14.40;;;9.60;;
21876;SDS011;11103;43.788;23.710;2022-07-31T04:31:34;19.27;;;10.60;;
21876;SDS011;11103;43.788;23.710;2022-07-31T04:33:59;15.77;;;10.60;;
21876;SDS011;11103;43.788;23.710;2022-07-31T04:36:25;13.43;;;11.13;;
21876;SDS011;11103;43.788;23.710;2022-07-31T04:38:51;15.33;;;10.47;;
21876;SDS011;11103;43.788;23.710;2022-07-31T04:41:16;12.50;;;10.43;;
21876;SDS011;11103;43.788;23.710;2022-07-31T04:43:41;12.50;;;10.17;;
21876;SDS011;11103;43.788;23.710;2022-07-31T04:46:07;12.90;;;10.63;;
21876;SDS011;11103;43.788;23.710;2022-07-31T04:48:32;12.07;;;10.33;;
21876;SDS011;11103;43.788;23.710;2022-07-31T04:50:59;13.43;;;11.07;;
21876;SDS011;11103;43.788;23.710;2022-07-31T04:53:24;16.33;;;11.03;;
21876;SDS011;11103;43.788;23.710;2022-07-31T04:55:50;12.90;;;10.40;;
21876;SDS011;11103;43.788;23.710;2022-07-31T04:58:34;11.83;;;10.10;;
21876;SDS011;11103;43.788;23.710;2022-07-31T05:01:00;13.40;;;10.67;;
21876;SDS011;11103;43.788;23.710;2022-07-31T05:03:26;13.93;;;10.33;;
21876;SDS011;11103;43.788;23.710;2022-07-31T05:05:52;12.23;;;10.23;;
21876;SDS011;11103;43.788;23.710;2022-07-31T05:08:17;12.10;;;9.50;;
21876;SDS011;11103;43.788;23.710;2022-07-31T05:10:43;12.40;;;10.10;;
21876;SDS011;11103;43.788;23.710;2022-07-31T05:13:27;13.70;;;9.97;;
21876;SDS011;11103;43.788;23.710;2022-07-31T05:15:52;13.80;;;9.87;;
21876;SDS011;11103;43.788;23.710;2022-07-31T05:18:18;13.57;;;10.93;;
21876;SDS011;11103;43.788;23.710;2022-07-31T05:20:43;15.80;;;10.17;;
21876;SDS011;11103;43.788;23.710;2022-07-31T05:23:08;17.23;;;10.40;;
21876;SDS011;11103;43.788;23.710;2022-07-31T05:25:34;13.80;;;10.67;;
21876;SDS011;11103;43.788;23.710;2022-07-31T05:27:59;16.63;;;10.90;;
21876;SDS011;11103;43.788;23.710;2022-07-31T05:30:25;14.67;;;12.17;;
21876;SDS011;11103;43.788;23.710;2022-07-31T05:32:50;15.00;;;12.17;;
21876;SDS011;11103;43.788;23.710;2022-07-31T05:35:16;14.00;;;11.47;;
21876;SDS011;11103;43.788;23.710;2022-07-31T05:37:41;18.37;;;11.47;;
21876;SDS011;11103;43.788;23.710;2022-07-31T05:40:08;14.70;;;11.20;;
21876;SDS011;11103;43.788;23.710;2022-07-31T05:42:34;17.20;;;12.70;;
21876;SDS011;11103;43.788;23.710;2022-07-31T05:44:59;16.17;;;12.93;;
21876;SDS011;11103;43.788;23.710;2022-07-31T05:47:25;14.63;;;11.60;;
21876;SDS011;11103;43.788;23.710;2022-07-31T05:49:50;17.63;;;12.77;;
21876;SDS011;11103;43.788;23.710;2022-07-31T05:52:23;17.67;;;12.57;;
21876;SDS011;11103;43.788;23.710;2022-07-31T05:54:48;17.67;;;12.53;;
21876;SDS011;11103;43.788;23.710;2022-07-31T05:57:13;17.10;;;13.23;;
21876;SDS011;11103;43.788;23.710;2022-07-31T05:59:39;19.73;;;13.33;;
21876;SDS011;11103;43.788;23.710;2022-07-31T06:02:04;19.57;;;12.70;;
21876;SDS011;11103;43.788;23.710;2022-07-31T06:04:30;15.03;;;12.30;;
21876;SDS011;11103;43.788;23.710;2022-07-31T06:06:55;14.63;;;11.53;;
21876;SDS011;11103;43.788;23.710;2022-07-31T06:09:21;23.17;;;12.07;;
21876;SDS011;11103;43.788;23.710;2022-07-31T06:11:46;14.20;;;11.60;;
21876;SDS011;11103;43.788;23.710;2022-07-31T06:14:12;13.97;;;11.57;;
21876;SDS011;11103;43.788;23.710;2022-07-31T06:16:38;14.97;;;10.90;;
21876;SDS011;11103;43.788;23.710;2022-07-31T06:19:04;12.40;;;10.10;;
21876;SDS011;11103;43.788;23.710;2022-07-31T06:21:30;11.77;;;9.87;;
21876;SDS011;11103;43.788;23.710;2022-07-31T06:23:55;16.40;;;10.27;;
21876;SDS011;11103;43.788;23.710;2022-07-31T06:26:20;11.63;;;9.30;;
21876;SDS011;11103;43.788;23.710;2022-07-31T06:28:46;12.80;;;9.60;;
21876;SDS011;11103;43.788;23.710;2022-07-31T06:31:18;13.00;;;10.27;;
21876;SDS011;11103;43.788;23.710;2022-07-31T06:33:45;14.20;;;10.90;;
21876;SDS011;11103;43.788;23.710;2022-07-31T06:36:11;13.97;;;10.87;;
21876;SDS011;11103;43.788;23.710;2022-07-31T06:38:38;15.30;;;11.60;;
21876;SDS011;11103;43.788;23.710;2022-07-31T06:41:04;13.70;;;10.90;;
21876;SDS011;11103;43.788;23.710;2022-07-31T06:43:29;14.47;;;11.03;;
21876;SDS011;11103;43.788;23.710;2022-07-31T06:45:55;15.93;;;11.23;;
21876;SDS011;11103;43.788;23.710;2022-07-31T06:48:20;14.27;;;10.27;;
21876;SDS011;11103;43.788;23.710;2022-07-31T06:50:45;12.83;;;10.97;;
21876;SDS011;11103;43.788;23.710;2022-07-31T06:53:12;13.90;;;10.90;;
21876;SDS011;11103;43.788;23.710;2022-07-31T06:55:37;17.17;;;11.97;;
21876;SDS011;11103;43.788;23.710;2022-07-31T06:58:02;14.13;;;12.03;;
21876;SDS011;11103;43.788;23.710;2022-07-31T07:00:28;16.33;;;11.90;;
21876;SDS011;11103;43.788;23.710;2022-07-31T07:02:53;15.50;;;12.03;;
21876;SDS011;11103;43.788;23.710;2022-07-31T07:05:19;16.07;;;12.13;;
21876;SDS011;11103;43.788;23.710;2022-07-31T07:07:45;16.00;;;12.70;;
21876;SDS011;11103;43.788;23.710;2022-07-31T07:10:11;19.27;;;13.57;;
21876;SDS011;11103;43.788;23.710;2022-07-31T07:12:37;20.47;;;14.43;;
21876;SDS011;11103;43.788;23.710;2022-07-31T07:15:03;20.43;;;13.33;;
21876;SDS011;11103;43.788;23.710;2022-07-31T07:17:28;16.07;;;13.00;;
21876;SDS011;11103;43.788;23.710;2022-07-31T07:19:54;14.40;;;12.43;;
21876;SDS011;11103;43.788;23.710;2022-07-31T07:22:20;17.57;;;12.10;;
21876;SDS011;11103;43.788;23.710;2022-07-31T07:24:46;14.83;;;11.73;;
21876;SDS011;11103;43.788;23.710;2022-07-31T07:27:12;14.30;;;11.63;;
21876;SDS011;11103;43.788;23.710;2022-07-31T07:29:38;17.47;;;11.33;;
21876;SDS011;11103;43.788;23.710;2022-07-31T07:32:03;15.43;;;11.60;;
21876;SDS011;11103;43.788;23.710;2022-07-31T07:34:29;20.37;;;12.27;;
21876;SDS011;11103;43.788;23.710;2022-07-31T07:36:54;14.20;;;11.87;;
21876;SDS011;11103;43.788;23.710;2022-07-31T07:39:20;21.47;;;10.77;;
21876;SDS011;11103;43.788;23.710;2022-07-31T07:41:46;14.77;;;11.73;;
21876;SDS011;11103;43.788;23.710;2022-07-31T07:44:12;13.97;;;11.23;;
21876;SDS011;11103;43.788;23.710;2022-07-31T07:46:38;12.50;;;10.70;;
21876;SDS011;11103;43.788;23.710;2022-07-31T07:49:03;14.33;;;10.20;;
21876;SDS011;11103;43.788;23.710;2022-07-31T07:51:29;13.87;;;11.37;;
21876;SDS011;11103;43.788;23.710;2022-07-31T07:53:54;15.83;;;10.93;;
21876;SDS011;11103;43.788;23.710;2022-07-31T07:56:20;14.87;;;11.67;;
21876;SDS011;11103;43.788;23.710;2022-07-31T07:58:45;13.50;;;10.23;;
21876;SDS011;11103;43.788;23.710;2022-07-31T08:01:14;12.37;;;10.80;;
21876;SDS011;11103;43.788;23.710;2022-07-31T08:03:39;11.93;;;10.37;;
21876;SDS011;11103;43.788;23.710;2022-07-31T08:06:05;13.37;;;10.53;;
21876;SDS011;11103;43.788;23.710;2022-07-31T08:08:30;14.17;;;9.87;;
21876;SDS011;11103;43.788;23.710;2022-07-31T08:10:56;10.53;;;9.43;;
21876;SDS011;11103;43.788;23.710;2022-07-31T08:13:22;10.77;;;9.40;;
21876;SDS011;11103;43.788;23.710;2022-07-31T08:15:49;11.03;;;8.30;;
21876;SDS011;11103;43.788;23.710;2022-07-31T08:18:15;9.70;;;8.10;;
21876;SDS011;11103;43.788;23.710;2022-07-31T08:20:41;9.97;;;8.23;;
21876;SDS011;11103;43.788;23.710;2022-07-31T08:23:07;11.40;;;7.37;;
21876;SDS011;11103;43.788;23.710;2022-07-31T08:25:32;9.40;;;6.63;;
21876;SDS011;11103;43.788;23.710;2022-07-31T08:27:58;8.80;;;6.37;;
21876;SDS011;11103;43.788;23.710;2022-07-31T08:30:23;7.17;;;6.10;;
21876;SDS011;11103;43.788;23.710;2022-07-31T08:32:49;9.77;;;6.07;;
21876;SDS011;11103;43.788;23.710;2022-07-31T08:35:15;7.90;;;7.07;;
21876;SDS011;11103;43.788;23.710;2022-07-31T08:37:46;7.23;;;6.47;;
21876;SDS011;11103;43.788;23.710;2022-07-31T08:40:12;10.60;;;7.00;;
21876;SDS011;11103;43.788;23.710;2022-07-31T08:42:37;10.63;;;6.40;;
21876;SDS011;11103;43.788;23.710;2022-07-31T08:45:06;6.67;;;5.97;;
21876;SDS011;11103;43.788;23.710;2022-07-31T08:47:33;7.93;;;6.57;;
21876;SDS011;11103;43.788;23.710;2022-07-31T08:49:59;7.20;;;6.33;;
21876;SDS011;11103;43.788;23.710;2022-07-31T08:52:25;9.83;;;6.17;;
21876;SDS011;11103;43.788;23.710;2022-07-31T08:54:56;9.40;;;6.63;;
21876;SDS011;11103;43.788;23.710;2022-07-31T08:57:22;6.50;;;5.73;;
21876;SDS011;11103;43.788;23.710;2022-07-31T08:59:48;7.57;;;6.13;;
21876;SDS011;11103;43.788;23.710;2022-07-31T09:02:16;8.20;;;6.47;;
21876;SDS011;11103;43.788;23.710;2022-07-31T09:04:42;6.87;;;6.17;;
21876;SDS011;11103;43.788;23.710;2022-07-31T09:07:12;7.50;;;6.57;;
21876;SDS011;11103;43.788;23.710;2022-07-31T09:09:41;7.80;;;6.20;;
21876;SDS011;11103;43.788;23.710;2022-07-31T09:12:11;7.00;;;6.30;;
21876;SDS011;11103;43.788;23.710;2022-07-31T09:14:45;7.23;;;5.87;;
21876;SDS011;11103;43.788;23.710;2022-07-31T09:17:12;7.23;;;5.17;;
21876;SDS011;11103;43.788;23.710;2022-07-31T09:19:41;7.37;;;5.80;;
21876;SDS011;11103;43.788;23.710;2022-07-31T09:22:23;5.60;;;5.00;;
21876;SDS011;11103;43.788;23.710;2022-07-31T09:24:51;5.60;;;4.87;;
21876;SDS011;11103;43.788;23.710;2022-07-31T09:27:17;6.00;;;5.03;;
21876;SDS011;11103;43.788;23.710;2022-07-31T09:29:44;6.47;;;5.03;;
21876;SDS011;11103;43.788;23.710;2022-07-31T09:32:17;10.13;;;5.37;;
21876;SDS011;11103;43.788;23.710;2022-07-31T09:34:44;7.43;;;5.93;;
21876;SDS011;11103;43.788;23.710;2022-07-31T09:37:15;6.90;;;6.07;;
21876;SDS011;11103;43.788;23.710;2022-07-31T09:39:47;10.13;;;6.50;;
21876;SDS011;11103;43.788;23.710;2022-07-31T09:42:15;9.57;;;6.07;;
21876;SDS011;11103;43.788;23.710;2022-07-31T09:44:41;7.57;;;6.00;;
21876;SDS011;11103;43.788;23.710;2022-07-31T09:47:21;7.53;;;6.83;;
21876;SDS011;11103;43.788;23.710;2022-07-31T09:49:57;9.40;;;6.97;;
21876;SDS011;11103;43.788;23.710;2022-07-31T09:52:25;9.10;;;7.07;;
21876;SDS011;11103;43.788;23.710;2022-07-31T09:57:35;7.20;;;6.50;;
21876;SDS011;11103;43.788;23.710;2022-07-31T10:00:03;15.73;;;6.37;;
21876;SDS011;11103;43.788;23.710;2022-07-31T10:02:34;7.13;;;6.17;;
21876;SDS011;11103;43.788;23.710;2022-07-31T10:05:02;6.43;;;5.83;;
21876;SDS011;11103;43.788;23.710;2022-07-31T10:07:28;6.13;;;5.13;;
21876;SDS011;11103;43.788;23.710;2022-07-31T10:09:59;6.67;;;5.13;;
21876;SDS011;11103;43.788;23.710;2022-07-31T10:12:27;5.27;;;4.77;;
21876;SDS011;11103;43.788;23.710;2022-07-31T10:14:54;4.87;;;4.33;;
21876;SDS011;11103;43.788;23.710;2022-07-31T10:17:24;5.40;;;3.93;;
21876;SDS011;11103;43.788;23.710;2022-07-31T10:19:55;4.73;;;3.93;;
21876;SDS011;11103;43.788;23.710;2022-07-31T10:22:26;4.60;;;3.80;;
21876;SDS011;11103;43.788;23.710;2022-07-31T10:24:56;4.10;;;3.70;;
21876;SDS011;11103;43.788;23.710;2022-07-31T10:27:25;3.97;;;3.57;;
21876;SDS011;11103;43.788;23.710;2022-07-31T10:29:53;3.80;;;3.33;;
21876;SDS011;11103;43.788;23.710;2022-07-31T10:32:20;4.30;;;3.90;;
21876;SDS011;11103;43.788;23.710;2022-07-31T10:34:46;4.33;;;3.93;;
21876;SDS011;11103;43.788;23.710;2022-07-31T10:37:34;4.33;;;3.63;;
21876;SDS011;11103;43.788;23.710;2022-07-31T10:42:48;8.80;;;4.50;;
21876;SDS011;11103;43.788;23.710;2022-07-31T10:45:15;18.93;;;4.87;;
21876;SDS011;11103;43.788;23.710;2022-07-31T10:47:57;5.23;;;4.67;;
21876;SDS011;11103;43.788;23.710;2022-07-31T10:50:25;5.67;;;4.97;;
21876;SDS011;11103;43.788;23.710;2022-07-31T10:52:53;7.33;;;4.50;;
21876;SDS011;11103;43.788;23.710;2022-07-31T10:55:20;5.47;;;4.17;;
21876;SDS011;11103;43.788;23.710;2022-07-31T10:57:49;5.20;;;4.70;;
21876;SDS011;11103;43.788;23.710;2022-07-31T11:00:17;7.30;;;5.07;;
21876;SDS011;11103;43.788;23.710;2022-07-31T11:02:45;6.57;;;4.80;;
21876;SDS011;11103;43.788;23.710;2022-07-31T11:05:12;5.40;;;4.60;;
21876;SDS011;11103;43.788;23.710;2022-07-31T11:07:39;7.40;;;4.60;;
21876;SDS011;11103;43.788;23.710;2022-07-31T11:10:18;5.07;;;4.57;;
21876;SDS011;11103;43.788;23.710;2022-07-31T11:12:45;7.67;;;4.10;;
21876;SDS011;11103;43.788;23.710;2022-07-31T11:15:23;3.93;;;3.63;;
21876;SDS011;11103;43.788;23.710;2022-07-31T11:17:49;6.70;;;3.47;;
21876;SDS011;11103;43.788;23.710;2022-07-31T11:20:17;4.63;;;3.00;;
21876;SDS011;11103;43.788;23.710;2022-07-31T11:22:57;4.70;;;2.97;;
21876;SDS011;11103;43.788;23.710;2022-07-31T11:25:26;3.57;;;2.57;;
21876;SDS011;11103;43.788;23.710;2022-07-31T11:27:56;2.83;;;2.63;;
21876;SDS011;11103;43.788;23.710;2022-07-31T11:30:33;2.70;;;2.50;;
21876;SDS011;11103;43.788;23.710;2022-07-31T11:32:59;3.43;;;2.60;;
21876;SDS011;11103;43.788;23.710;2022-07-31T11:35:25;2.67;;;2.40;;
21876;SDS011;11103;43.788;23.710;2022-07-31T11:37:53;2.40;;;2.20;;
21876;SDS011;11103;43.788;23.710;2022-07-31T11:40:19;2.67;;;2.20;;
21876;SDS011;11103;43.788;23.710;2022-07-31T11:42:44;2.50;;;2.30;;
21876;SDS011;11103;43.788;23.710;2022-07-31T11:45:10;4.30;;;2.50;;
21876;SDS011;11103;43.788;23.710;2022-07-31T11:47:39;2.30;;;2.10;;
21876;SDS011;11103;43.788;23.710;2022-07-31T11:50:06;5.90;;;2.50;;
21876;SDS011;11103;43.788;23.710;2022-07-31T11:52:34;3.13;;;2.33;;
21876;SDS011;11103;43.788;23.710;2022-07-31T11:55:06;2.40;;;2.20;;
21876;SDS011;11103;43.788;23.710;2022-07-31T11:57:33;4.57;;;2.80;;
21876;SDS011;11103;43.788;23.710;2022-07-31T12:00:05;4.80;;;2.73;;
21876;SDS011;11103;43.788;23.710;2022-07-31T12:02:41;3.50;;;2.53;;
21876;SDS011;11103;43.788;23.710;2022-07-31T12:05:08;4.60;;;2.40;;
21876;SDS011;11103;43.788;23.710;2022-07-31T12:07:37;2.53;;;2.33;;
21876;SDS011;11103;43.788;23.710;2022-07-31T12:10:10;2.20;;;2.00;;
21876;SDS011;11103;43.788;23.710;2022-07-31T12:12:37;2.73;;;2.47;;
21876;SDS011;11103;43.788;23.710;2022-07-31T12:15:14;3.13;;;2.43;;
21876;SDS011;11103;43.788;23.710;2022-07-31T12:17:41;4.53;;;2.63;;
21876;SDS011;11103;43.788;23.710;2022-07-31T12:20:07;3.47;;;2.77;;
21876;SDS011;11103;43.788;23.710;2022-07-31T12:22:33;2.40;;;2.20;;
21876;SDS011;11103;43.788;23.710;2022-07-31T12:24:59;2.33;;;2.13;;
21876;SDS011;11103;43.788;23.710;2022-07-31T12:27:25;2.40;;;2.30;;
21876;SDS011;11103;43.788;23.710;2022-07-31T12:29:51;2.40;;;2.20;;
21876;SDS011;11103;43.788;23.710;2022-07-31T12:32:27;3.13;;;2.50;;
21876;SDS011;11103;43.788;23.710;2022-07-31T12:35:02;2.53;;;2.33;;
21876;SDS011;11103;43.788;23.710;2022-07-31T12:37:28;6.87;;;3.00;;
21876;SDS011;11103;43.788;23.710;2022-07-31T12:39:55;3.03;;;2.63;;
21876;SDS011;11103;43.788;23.710;2022-07-31T12:42:31;4.40;;;3.00;;
21876;SDS011;11103;43.788;23.710;2022-07-31T12:45:01;9.57;;;2.90;;
21876;SDS011;11103;43.788;23.710;2022-07-31T12:47:29;3.70;;;3.40;;
21876;SDS011;11103;43.788;23.710;2022-07-31T12:49:56;5.63;;;3.47;;
21876;SDS011;11103;43.788;23.710;2022-07-31T12:52:23;6.33;;;3.43;;
21876;SDS011;11103;43.788;23.710;2022-07-31T12:54:49;4.13;;;3.10;;
21876;SDS011;11103;43.788;23.710;2022-07-31T12:57:15;3.40;;;3.10;;
21876;SDS011;11103;43.788;23.710;2022-07-31T12:59:41;4.50;;;2.87;;
21876;SDS011;11103;43.788;23.710;2022-07-31T13:02:06;6.33;;;3.03;;
21876;SDS011;11103;43.788;23.710;2022-07-31T13:04:32;3.50;;;3.20;;
21876;SDS011;11103;43.788;23.710;2022-07-31T13:06:58;3.40;;;3.10;;
21876;SDS011;11103;43.788;23.710;2022-07-31T13:09:24;9.27;;;2.80;;
21876;SDS011;11103;43.788;23.710;2022-07-31T13:11:50;4.67;;;3.00;;
21876;SDS011;11103;43.788;23.710;2022-07-31T13:14:15;4.47;;;3.20;;
21876;SDS011;11103;43.788;23.710;2022-07-31T13:16:42;2.80;;;2.60;;
21876;SDS011;11103;43.788;23.710;2022-07-31T13:19:07;4.87;;;2.77;;
21876;SDS011;11103;43.788;23.710;2022-07-31T13:21:33;6.43;;;2.97;;
21876;SDS011;11103;43.788;23.710;2022-07-31T13:23:58;3.30;;;2.80;;
21876;SDS011;11103;43.788;23.710;2022-07-31T13:26:24;3.20;;;2.90;;
21876;SDS011;11103;43.788;23.710;2022-07-31T13:28:51;3.07;;;2.73;;
21876;SDS011;11103;43.788;23.710;2022-07-31T13:31:17;3.30;;;3.00;;
21876;SDS011;11103;43.788;23.710;2022-07-31T13:33:42;4.37;;;2.97;;
21876;SDS011;11103;43.788;23.710;2022-07-31T13:36:08;3.83;;;3.30;;
21876;SDS011;11103;43.788;23.710;2022-07-31T13:38:34;3.30;;;3.00;;
21876;SDS011;11103;43.788;23.710;2022-07-31T13:40:59;5.07;;;3.35;;
21876;SDS011;11103;43.788;23.710;2022-07-31T13:43:43;2.90;;;2.70;;
21876;SDS011;11103;43.788;23.710;2022-07-31T13:46:08;2.90;;;2.70;;
21876;SDS011;11103;43.788;23.710;2022-07-31T13:48:34;3.50;;;3.30;;
21876;SDS011;11103;43.788;23.710;2022-07-31T13:51:00;5.13;;;3.30;;
21876;SDS011;11103;43.788;23.710;2022-07-31T13:53:25;3.63;;;3.28;;
21876;SDS011;11103;43.788;23.710;2022-07-31T13:55:52;6.50;;;4.78;;
21876;SDS011;11103;43.788;23.710;2022-07-31T13:58:18;6.72;;;6.03;;
21876;SDS011;11103;43.788;23.710;2022-07-31T14:00:44;7.05;;;5.55;;
21876;SDS011;11103;43.788;23.710;2022-07-31T14:03:09;9.30;;;5.00;;
21876;SDS011;11103;43.788;23.710;2022-07-31T14:05:36;5.43;;;4.60;;
21876;SDS011;11103;43.788;23.710;2022-07-31T14:08:02;5.85;;;5.28;;
21876;SDS011;11103;43.788;23.710;2022-07-31T14:10:28;8.00;;;7.22;;
21876;SDS011;11103;43.788;23.710;2022-07-31T14:12:54;8.68;;;7.18;;
21876;SDS011;11103;43.788;23.710;2022-07-31T14:15:19;4.63;;;4.22;;
21876;SDS011;11103;43.788;23.710;2022-07-31T14:17:46;5.72;;;5.00;;
21876;SDS011;11103;43.788;23.710;2022-07-31T14:20:12;8.38;;;7.30;;
21876;SDS011;11103;43.788;23.710;2022-07-31T14:22:38;6.80;;;6.07;;
21876;SDS011;11103;43.788;23.710;2022-07-31T14:25:06;3.50;;;3.22;;
21876;SDS011;11103;43.788;23.710;2022-07-31T14:27:36;4.53;;;3.40;;
21876;SDS011;11103;43.788;23.710;2022-07-31T14:30:06;3.05;;;2.80;;
21876;SDS011;11103;43.788;23.710;2022-07-31T14:32:32;3.17;;;2.97;;
21876;SDS011;11103;43.788;23.710;2022-07-31T14:34:57;6.53;;;5.53;;
21876;SDS011;11103;43.788;23.710;2022-07-31T14:37:23;7.00;;;5.80;;
21876;SDS011;11103;43.788;23.710;2022-07-31T14:39:48;5.68;;;4.50;;
21876;SDS011;11103;43.788;23.710;2022-07-31T14:42:14;7.13;;;4.30;;